Time;durP1;ratioP1;P1;durP2;ratioP2;P2;SDS_P1;SDS_P2;PMS_P1;PMS_P2;Temp;Humidity;BMP_temperature;BMP_pressure;BME280_temperature;BME280_humidity;BME280_pressure;Samples;Min_cycle;Max_cycle;Signal;HPM_P1;HPM_P2
2020/12/13 00:00:13;;;;;;;25.23;10.70;;;5.70;99.90;;;;;;4976927;28;20047;-70
2020/12/13 00:02:41;;;;;;;21.27;9.75;;;5.70;99.90;;;;;;4978244;28;20499;-70
2020/12/13 00:05:09;;;;;;;22.52;10.70;;;5.70;99.90;;;;;;4977308;28;20026;-70
2020/12/13 00:07:37;;;;;;;23.50;11.20;;;5.70;99.90;;;;;;4992587;28;20458;-70
2020/12/13 00:10:04;;;;;;;26.20;10.80;;;5.70;99.90;;;;;;4977776;28;20391;-70
2020/12/13 00:12:32;;;;;;;26.98;10.70;;;5.70;99.90;;;;;;4980056;28;20089;-70
2020/12/13 00:14:59;;;;;;;26.33;10.90;;;5.70;99.90;;;;;;4981264;28;20019;-70
2020/12/13 00:17:27;;;;;;;20.80;10.20;;;5.70;99.90;;;;;;4996002;28;20038;-70
2020/12/13 00:19:55;;;;;;;28.27;10.70;;;5.70;99.90;;;;;;4980638;28;20330;-70
2020/12/13 00:22:23;;;;;;;24.38;11.52;;;5.70;99.90;;;;;;4995893;28;20023;-70
2020/12/13 00:24:51;;;;;;;22.25;9.30;;;5.70;99.90;;;;;;4980630;28;20023;-70
2020/12/13 00:27:18;;;;;;;25.17;11.45;;;5.70;99.90;;;;;;4980751;28;20106;-70
2020/12/13 00:29:46;;;;;;;29.50;11.27;;;5.70;99.90;;;;;;4980396;28;20308;-70
2020/12/13 00:32:13;;;;;;;32.22;12.05;;;5.70;99.90;;;;;;4981087;28;20030;-70
2020/12/13 00:34:41;;;;;;;25.35;11.40;;;5.70;99.90;;;;;;4980420;28;20058;-70
2020/12/13 00:37:09;;;;;;;23.00;10.85;;;5.70;99.90;;;;;;4980468;28;20061;-70
2020/12/13 00:39:38;;;;;;;30.40;12.38;;;5.70;99.90;;;;;;4980858;28;20030;-70
2020/12/13 00:42:06;;;;;;;26.55;11.05;;;5.70;99.90;;;;;;4980842;28;20030;-70
2020/12/13 00:44:34;;;;;;;30.02;11.65;;;5.70;99.90;;;;;;4995556;28;20318;-70
2020/12/13 00:47:02;;;;;;;24.85;11.43;;;5.70;99.90;;;;;;4980192;28;20057;-70
2020/12/13 00:49:29;;;;;;;31.02;11.27;;;5.70;99.90;;;;;;4980698;28;20035;-70
2020/12/13 00:52:05;;;;;;;26.75;11.07;;;5.70;99.90;;;;;;4980120;28;20180;-70
2020/12/13 00:54:33;;;;;;;28.30;11.38;;;5.70;99.90;;;;;;4995109;28;20446;-70
2020/12/13 00:57:00;;;;;;;28.58;12.18;;;5.70;99.90;;;;;;4980485;28;20031;-70
2020/12/13 00:59:28;;;;;;;29.20;12.27;;;5.60;99.90;;;;;;4979669;28;20094;-70
2020/12/13 01:01:55;;;;;;;29.40;11.20;;;5.70;99.90;;;;;;4980855;28;20089;-70
2020/12/13 01:04:23;;;;;;;30.25;12.02;;;5.70;99.90;;;;;;4979719;28;20031;-70
2020/12/13 01:06:52;;;;;;;35.08;11.95;;;5.70;99.90;;;;;;4994984;28;20027;-70
2020/12/13 01:09:20;;;;;;;33.30;12.35;;;5.70;99.90;;;;;;4994991;28;20054;-70
2020/12/13 01:11:48;;;;;;;34.33;12.55;;;5.70;99.90;;;;;;4980264;28;20033;-70
2020/12/13 01:14:16;;;;;;;27.17;11.77;;;5.70;99.90;;;;;;4995015;28;20107;-70
2020/12/13 01:16:43;;;;;;;24.50;11.02;;;5.70;99.90;;;;;;4979606;28;20026;-70
2020/12/13 01:19:11;;;;;;;28.77;12.45;;;5.70;99.90;;;;;;4980210;28;20022;-70
2020/12/13 01:21:39;;;;;;;24.65;11.48;;;5.70;99.90;;;;;;4994701;28;20026;-70
2020/12/13 01:24:06;;;;;;;23.27;11.23;;;5.70;99.90;;;;;;4994521;28;20027;-70
2020/12/13 01:26:33;;;;;;;31.05;12.13;;;5.70;99.90;;;;;;4994590;28;20029;-70
2020/12/13 01:29:02;;;;;;;26.00;12.38;;;5.70;99.90;;;;;;4979371;28;20066;-70
2020/12/13 01:31:29;;;;;;;32.97;13.80;;;5.80;99.90;;;;;;4979703;28;20049;-70
2020/12/13 01:33:57;;;;;;;26.23;11.85;;;5.80;99.90;;;;;;4980262;28;20439;-70
2020/12/13 01:36:24;;;;;;;27.63;11.93;;;5.80;99.90;;;;;;4979933;28;20053;-70
2020/12/13 01:38:52;;;;;;;24.75;11.68;;;5.80;99.90;;;;;;4979797;28;20101;-70
2020/12/13 01:41:21;;;;;;;28.42;12.18;;;5.80;99.90;;;;;;4979777;28;20316;-70
2020/12/13 01:44:03;;;;;;;26.63;11.48;;;5.80;99.90;;;;;;4979222;28;20062;-70
2020/12/13 01:46:32;;;;;;;34.03;12.80;;;5.80;99.90;;;;;;4979821;28;20440;-70
2020/12/13 01:49:08;;;;;;;29.00;11.32;;;5.80;99.90;;;;;;4979065;28;20033;-70
2020/12/13 01:52:06;;;;;;;27.77;14.05;;;5.80;99.90;;;;;;4994209;28;20362;-70
2020/12/13 01:54:36;;;;;;;30.73;13.88;;;5.80;99.90;;;;;;4979470;28;20300;-70
2020/12/13 01:57:07;;;;;;;27.02;11.77;;;5.80;99.90;;;;;;4994406;28;20031;-70
2020/12/13 01:59:37;;;;;;;29.95;11.63;;;5.80;99.90;;;;;;4978808;28;20022;-70
2020/12/13 02:02:05;;;;;;;26.75;12.02;;;5.80;99.90;;;;;;4978806;28;20458;-70
2020/12/13 02:04:38;;;;;;;27.92;13.50;;;5.80;99.90;;;;;;4978746;28;20029;-70
2020/12/13 02:07:06;;;;;;;24.63;11.55;;;5.80;99.90;;;;;;4979198;28;20026;-70
2020/12/13 02:09:34;;;;;;;29.77;11.75;;;5.80;99.90;;;;;;4993905;28;20090;-70
2020/12/13 02:12:02;;;;;;;29.45;12.40;;;5.80;99.90;;;;;;4979185;28;20023;-70
2020/12/13 02:14:29;;;;;;;27.35;11.63;;;5.80;99.90;;;;;;4979096;28;20538;-70
2020/12/13 02:16:57;;;;;;;26.40;11.80;;;5.80;99.90;;;;;;4978820;28;20030;-70
2020/12/13 02:19:25;;;;;;;26.83;12.48;;;5.80;99.90;;;;;;4978519;28;20050;-70
2020/12/13 02:21:52;;;;;;;32.53;11.93;;;5.80;99.90;;;;;;4978658;28;20019;-70
2020/12/13 02:24:21;;;;;;;36.17;13.15;;;5.80;99.90;;;;;;4993645;28;20114;-70
2020/12/13 02:26:49;;;;;;;27.08;11.45;;;5.80;99.90;;;;;;4993584;28;20323;-70
2020/12/13 02:29:16;;;;;;;28.38;12.02;;;5.80;99.90;;;;;;4993762;28;20023;-70
2020/12/13 02:31:45;;;;;;;28.95;12.55;;;5.80;99.90;;;;;;4979010;28;20026;-70
2020/12/13 02:34:12;;;;;;;27.40;11.85;;;5.80;99.90;;;;;;4992718;28;20323;-70
2020/12/13 02:36:40;;;;;;;28.17;11.82;;;5.80;99.90;;;;;;4978421;28;20323;-70
2020/12/13 02:39:09;;;;;;;24.90;11.93;;;5.80;99.90;;;;;;4978711;28;20023;-70
2020/12/13 02:41:37;;;;;;;27.08;11.82;;;5.80;99.90;;;;;;4978804;28;20082;-70
2020/12/13 02:44:05;;;;;;;25.65;12.13;;;5.80;99.90;;;;;;4993157;28;20025;-70
2020/12/13 02:46:35;;;;;;;25.77;11.88;;;5.80;99.90;;;;;;4978701;28;20073;-70
2020/12/13 02:49:02;;;;;;;28.77;11.23;;;5.80;99.90;;;;;;4978296;28;20367;-70
2020/12/13 02:51:31;;;;;;;26.63;12.73;;;5.80;99.90;;;;;;4978165;28;20077;-70
2020/12/13 02:54:00;;;;;;;25.13;12.35;;;5.80;99.90;;;;;;4977765;28;20427;-70
2020/12/13 02:56:34;;;;;;;29.70;12.93;;;5.80;99.90;;;;;;4977847;28;20518;-70
2020/12/13 02:59:01;;;;;;;32.25;12.68;;;5.80;99.90;;;;;;4977833;28;20022;-70
2020/12/13 03:01:29;;;;;;;30.48;12.65;;;5.80;99.90;;;;;;4977885;28;20050;-70
2020/12/13 03:03:56;;;;;;;27.80;13.02;;;5.80;99.90;;;;;;4977630;28;20416;-70
2020/12/13 03:06:24;;;;;;;32.05;12.30;;;5.80;99.90;;;;;;4977840;28;20019;-70
2020/12/13 03:08:51;;;;;;;34.17;12.85;;;5.80;99.90;;;;;;4992940;28;20423;-70
2020/12/13 03:11:22;;;;;;;29.88;12.70;;;5.80;99.90;;;;;;4978313;28;20030;-70
2020/12/13 03:13:51;;;;;;;30.05;13.25;;;5.80;99.90;;;;;;4978241;28;20026;-70
2020/12/13 03:16:20;;;;;;;26.38;12.70;;;5.80;99.90;;;;;;4977629;28;20081;-70
2020/12/13 03:18:47;;;;;;;29.05;12.63;;;5.80;99.90;;;;;;4977690;28;20097;-70
2020/12/13 03:21:14;;;;;;;27.73;12.45;;;5.80;99.90;;;;;;4992797;28;20034;-70
2020/12/13 03:23:42;;;;;;;28.17;12.32;;;5.80;99.90;;;;;;4978449;28;20278;-70
2020/12/13 03:26:09;;;;;;;31.20;14.23;;;5.80;99.90;;;;;;4977610;28;20427;-70
2020/12/13 03:28:37;;;;;;;26.55;12.65;;;5.80;99.90;;;;;;4977529;28;20026;-70
2020/12/13 03:31:04;;;;;;;28.33;13.50;;;5.80;99.90;;;;;;4993466;28;20034;-70
2020/12/13 03:33:31;;;;;;;23.27;12.10;;;5.80;99.90;;;;;;4977738;28;20431;-70
2020/12/13 03:35:59;;;;;;;28.60;13.52;;;5.80;99.90;;;;;;4977246;28;20061;-70
2020/12/13 03:38:26;;;;;;;23.25;10.85;;;5.80;99.90;;;;;;4977562;28;20030;-70
2020/12/13 03:40:55;;;;;;;26.27;11.70;;;5.80;99.90;;;;;;4978065;28;20019;-70
2020/12/13 03:43:22;;;;;;;23.45;11.02;;;5.80;99.90;;;;;;4977564;28;20102;-70
2020/12/13 03:45:50;;;;;;;24.90;11.35;;;5.80;99.90;;;;;;4993913;28;20027;-70
2020/12/13 03:48:17;;;;;;;35.45;12.40;;;5.80;99.90;;;;;;4996519;28;20031;-70
2020/12/13 03:50:45;;;;;;;26.45;10.90;;;5.80;99.90;;;;;;4981183;28;20042;-70
2020/12/13 03:53:14;;;;;;;26.05;11.43;;;5.80;99.90;;;;;;4981354;28;20023;-70
2020/12/13 03:55:42;;;;;;;23.00;10.02;;;5.80;99.90;;;;;;4981086;28;20301;-70
2020/12/13 03:58:10;;;;;;;25.75;11.30;;;5.80;99.90;;;;;;4996221;28;20023;-70
2020/12/13 04:00:37;;;;;;;25.25;10.48;;;5.80;99.90;;;;;;4981104;28;20105;-70
2020/12/13 04:03:04;;;;;;;25.98;11.68;;;5.80;99.90;;;;;;4996527;28;20110;-70
2020/12/13 04:05:33;;;;;;;23.63;9.95;;;5.80;99.90;;;;;;4996179;28;20415;-70
2020/12/13 04:08:01;;;;;;;22.63;10.95;;;5.80;99.90;;;;;;4980997;28;20034;-70
2020/12/13 04:10:28;;;;;;;27.08;11.15;;;5.80;99.90;;;;;;4980898;28;20462;-70
2020/12/13 04:12:56;;;;;;;24.73;11.20;;;5.80;99.90;;;;;;4980954;28;20033;-70
2020/12/13 04:15:23;;;;;;;28.73;11.82;;;5.80;99.90;;;;;;4980845;28;20023;-70
2020/12/13 04:17:51;;;;;;;20.90;11.68;;;5.80;99.90;;;;;;4996191;28;20355;-70
2020/12/13 04:20:20;;;;;;;23.45;11.65;;;5.80;99.90;;;;;;4980692;28;20015;-70
2020/12/13 04:22:47;;;;;;;21.13;10.98;;;5.80;99.90;;;;;;4980840;28;20019;-70
2020/12/13 04:25:15;;;;;;;21.80;10.70;;;5.80;99.90;;;;;;4995791;28;20027;-70
2020/12/13 04:27:42;;;;;;;23.10;11.13;;;5.80;99.90;;;;;;4980560;28;20034;-70
2020/12/13 04:30:09;;;;;;;30.50;11.88;;;5.80;99.90;;;;;;4980547;28;20046;-70
2020/12/13 04:32:37;;;;;;;26.77;11.80;;;5.80;99.90;;;;;;4995821;28;20445;-70
2020/12/13 04:35:07;;;;;;;29.60;12.50;;;5.80;99.90;;;;;;4995631;28;20062;-70
2020/12/13 04:37:35;;;;;;;26.83;12.13;;;5.80;99.90;;;;;;4980397;28;20074;-70
2020/12/13 04:40:04;;;;;;;25.75;11.55;;;5.70;99.90;;;;;;4980910;28;20102;-70
2020/12/13 04:42:36;;;;;;;25.02;12.40;;;5.80;99.90;;;;;;4980359;28;20054;-70
2020/12/13 04:45:06;;;;;;;29.42;13.13;;;5.80;99.90;;;;;;4980491;28;20387;-70
2020/12/13 04:47:36;;;;;;;29.98;11.98;;;5.80;99.90;;;;;;4995374;28;20027;-70
2020/12/13 04:50:05;;;;;;;28.55;12.13;;;5.80;99.90;;;;;;4980471;28;20050;-70
2020/12/13 04:52:32;;;;;;;32.00;12.25;;;5.80;99.90;;;;;;4995462;28;20091;-70
2020/12/13 04:55:00;;;;;;;26.48;12.57;;;5.80;99.90;;;;;;4980053;28;20027;-70
2020/12/13 04:57:27;;;;;;;29.40;11.43;;;5.80;99.90;;;;;;4979188;28;20023;-70
2020/12/13 04:59:56;;;;;;;26.27;11.98;;;5.80;99.90;;;;;;4979729;28;20046;-70
2020/12/13 05:02:23;;;;;;;32.13;11.98;;;5.80;99.90;;;;;;4995244;28;20027;-70
2020/12/13 05:04:52;;;;;;;28.67;13.52;;;5.80;99.90;;;;;;4980182;28;20042;-70
2020/12/13 05:07:21;;;;;;;29.90;12.35;;;5.80;99.90;;;;;;4979861;28;20077;-70
2020/12/13 05:09:52;;;;;;;32.65;14.10;;;5.80;99.90;;;;;;4980027;28;20129;-70
2020/12/13 05:12:26;;;;;;;29.90;12.75;;;5.80;99.90;;;;;;4994953;28;20494;-70
2020/12/13 05:14:53;;;;;;;27.60;12.15;;;5.80;99.90;;;;;;4994707;28;20428;-70
2020/12/13 05:17:20;;;;;;;27.65;11.43;;;5.80;99.90;;;;;;4980116;28;20022;-70
2020/12/13 05:19:50;;;;;;;25.88;13.02;;;5.90;99.90;;;;;;4994848;28;20086;-70
2020/12/13 05:22:21;;;;;;;31.33;14.30;;;5.80;99.90;;;;;;4994752;28;20061;-70
2020/12/13 05:24:50;;;;;;;29.70;12.32;;;5.80;99.90;;;;;;4979520;28;20026;-70
2020/12/13 05:27:23;;;;;;;28.73;12.50;;;5.90;99.90;;;;;;4979529;28;20157;-70
2020/12/13 05:29:54;;;;;;;28.73;12.38;;;5.90;99.90;;;;;;4994581;28;20053;-70
2020/12/13 05:32:24;;;;;;;30.98;11.45;;;5.90;99.90;;;;;;4979853;28;20041;-70
2020/12/13 05:34:52;;;;;;;29.02;12.75;;;5.90;99.90;;;;;;4979606;28;20057;-70
2020/12/13 05:37:20;;;;;;;26.17;13.00;;;5.90;99.90;;;;;;4979152;28;20173;-70
2020/12/13 05:39:55;;;;;;;30.83;13.02;;;5.90;99.90;;;;;;4979801;28;20070;-70
2020/12/13 05:42:39;;;;;;;27.45;11.77;;;5.90;99.90;;;;;;4979958;28;20027;-70
2020/12/13 05:48:11;;;;;;;26.10;11.75;;;6.00;99.90;;;;;;4979165;28;20323;-70
2020/12/13 05:53:26;;;;;;;25.23;10.77;;;5.90;99.90;;;;;;4979549;28;20111;-70
2020/12/13 05:55:56;;;;;;;28.77;11.63;;;6.00;99.90;;;;;;4979220;28;20106;-70
2020/12/13 05:58:27;;;;;;;25.00;11.50;;;5.90;99.90;;;;;;4979740;28;20014;-70
2020/12/13 06:00:56;;;;;;;23.08;11.77;;;6.00;99.90;;;;;;4978490;28;20046;-70
2020/12/13 06:03:48;;;;;;;30.83;13.05;;;5.90;99.90;;;;;;4979539;28;20076;-70
2020/12/13 06:06:24;;;;;;;26.80;11.80;;;5.90;99.90;;;;;;4978051;28;20323;-70
2020/12/13 06:09:10;;;;;;;29.17;12.15;;;5.90;99.90;;;;;;4993884;28;20327;-70
2020/12/13 06:11:39;;;;;;;33.78;14.23;;;5.90;99.90;;;;;;4979116;28;20034;-70
2020/12/13 06:14:11;;;;;;;34.42;12.75;;;6.00;99.90;;;;;;4978801;28;20027;-70
2020/12/13 06:16:39;;;;;;;31.58;13.68;;;5.90;99.90;;;;;;4978514;28;20031;-70
2020/12/13 06:19:08;;;;;;;31.48;12.90;;;5.90;99.90;;;;;;4993693;28;20335;-70
2020/12/13 06:21:38;;;;;;;28.75;12.90;;;6.00;99.90;;;;;;4993616;28;20335;-70
2020/12/13 06:24:07;;;;;;;31.15;12.15;;;6.00;99.90;;;;;;4993632;28;20046;-70
2020/12/13 06:26:35;;;;;;;30.65;14.38;;;5.90;99.90;;;;;;4979003;28;20023;-70
2020/12/13 06:29:04;;;;;;;33.97;14.07;;;5.90;99.90;;;;;;4978298;28;20031;-70
2020/12/13 06:31:33;;;;;;;36.00;13.90;;;5.90;99.90;;;;;;4978241;28;20041;-70
2020/12/13 06:34:02;;;;;;;33.25;13.57;;;5.90;99.90;;;;;;4993643;28;20094;-69
2020/12/13 06:36:33;;;;;;;34.90;12.68;;;5.90;99.90;;;;;;4978785;28;20034;-69
2020/12/13 06:39:06;;;;;;;32.60;13.05;;;5.90;99.90;;;;;;4978755;28;20415;-69
2020/12/13 06:41:35;;;;;;;37.42;13.70;;;6.00;99.90;;;;;;4978353;28;20087;-69
2020/12/13 06:44:06;;;;;;;30.92;13.25;;;6.00;99.90;;;;;;4978330;28;20014;-68
2020/12/13 06:46:41;;;;;;;38.78;13.50;;;6.00;99.90;;;;;;4993349;28;20054;-69
2020/12/13 06:49:14;;;;;;;32.60;12.50;;;6.00;99.90;;;;;;4978065;28;20089;-69
2020/12/13 06:51:43;;;;;;;35.15;13.68;;;6.00;99.90;;;;;;4978726;28;20073;-69
2020/12/13 06:54:18;;;;;;;36.35;14.20;;;6.00;99.90;;;;;;4977937;28;20038;-69
2020/12/13 06:56:47;;;;;;;32.47;13.48;;;6.00;99.90;;;;;;4993054;28;20047;-69
2020/12/13 06:59:19;;;;;;;27.67;12.82;;;6.00;99.90;;;;;;4977740;28;20031;-68
2020/12/13 07:01:47;;;;;;;35.00;13.68;;;6.00;99.90;;;;;;4958767;28;20043;-69
2020/12/13 07:04:37;;;;;;;30.92;13.13;;;6.00;99.90;;;;;;4958511;29;20115;-69
2020/12/13 07:07:14;;;;;;;33.10;13.85;;;6.00;99.90;;;;;;4958441;28;20023;-69
2020/12/13 07:09:42;;;;;;;39.55;12.55;;;6.00;99.90;;;;;;4958446;28;20023;-69
2020/12/13 07:12:11;;;;;;;37.60;14.63;;;6.00;99.90;;;;;;4973630;28;20514;-69
2020/12/13 07:14:42;;;;;;;42.58;14.27;;;6.00;99.90;;;;;;4973370;28;20028;-69
2020/12/13 07:17:17;;;;;;;33.35;13.80;;;6.00;99.90;;;;;;4958855;28;20037;-69
2020/12/13 07:19:44;;;;;;;36.85;12.80;;;6.10;99.90;;;;;;4958781;28;20020;-69
2020/12/13 07:22:13;;;;;;;34.47;13.35;;;6.10;99.90;;;;;;4964143;28;20031;-69
2020/12/13 07:24:43;;;;;;;30.50;12.25;;;6.10;99.90;;;;;;4979889;28;20023;-69
2020/12/13 07:27:10;;;;;;;31.27;13.95;;;6.10;99.90;;;;;;4964612;28;20023;-69
2020/12/13 07:29:38;;;;;;;35.25;13.32;;;6.10;99.90;;;;;;4964598;28;20119;-69
2020/12/13 07:32:06;;;;;;;32.95;13.32;;;6.10;99.90;;;;;;4964720;28;20106;-69
2020/12/13 07:34:33;;;;;;;26.08;12.30;;;6.10;99.90;;;;;;4964690;28;20114;-69
2020/12/13 07:37:02;;;;;;;29.17;13.13;;;6.10;99.90;;;;;;4964813;28;20027;-69
2020/12/13 07:39:30;;;;;;;30.60;11.73;;;6.10;99.90;;;;;;4964674;28;20023;-69
2020/12/13 07:41:58;;;;;;;34.20;13.80;;;6.10;99.90;;;;;;4965174;28;20430;-70
2020/12/13 07:44:25;;;;;;;31.17;12.55;;;6.10;99.90;;;;;;4964774;28;20041;-70
2020/12/13 07:46:53;;;;;;;27.20;11.70;;;6.10;99.90;;;;;;4964578;28;20490;-69
2020/12/13 07:49:22;;;;;;;32.70;12.35;;;6.10;99.90;;;;;;4964514;28;20063;-69
2020/12/13 07:51:51;;;;;;;37.30;13.70;;;6.20;99.90;;;;;;4979848;28;20058;-68
2020/12/13 07:54:27;;;;;;;33.53;12.50;;;6.20;99.90;;;;;;4979642;28;20110;-69
2020/12/13 07:56:55;;;;;;;;;;;6.20;99.90;;;;;;4964871;28;20023;-69
2020/12/13 07:59:26;;;;;;;34.90;13.20;;;6.20;99.90;;;;;;4964578;28;19962;-69
2020/12/13 08:01:56;;;;;;;31.33;12.85;;;6.20;99.90;;;;;;4984794;28;20351;-68
2020/12/13 08:04:35;;;;;;;30.85;13.52;;;6.20;99.90;;;;;;4999039;28;20113;-68
2020/12/13 08:07:11;;;;;;;29.63;12.48;;;6.20;99.90;;;;;;4983741;28;20107;-68
2020/12/13 08:09:42;;;;;;;37.63;14.32;;;6.20;99.90;;;;;;4998965;28;20037;-68
2020/12/13 08:12:11;;;;;;;30.23;13.05;;;6.20;99.90;;;;;;4983720;28;20334;-68
2020/12/13 08:14:39;;;;;;;39.45;13.50;;;6.30;99.90;;;;;;4983582;28;20050;-68
2020/12/13 08:17:07;;;;;;;33.65;13.52;;;6.30;99.90;;;;;;4984102;28;20023;-68
2020/12/13 08:19:42;;;;;;;33.97;13.88;;;6.30;99.90;;;;;;4984209;28;20381;-69
2020/12/13 08:22:28;;;;;;;37.42;13.40;;;6.30;99.90;;;;;;4984170;28;20355;-69
2020/12/13 08:25:06;;;;;;;33.95;13.60;;;6.30;99.90;;;;;;4983542;28;20034;-69
2020/12/13 08:27:39;;;;;;;34.90;14.60;;;6.40;99.90;;;;;;4984012;28;20027;-70
2020/12/13 08:30:08;;;;;;;36.10;14.05;;;6.40;99.90;;;;;;4983452;28;20030;-68
2020/12/13 08:32:37;;;;;;;37.88;14.18;;;6.40;99.90;;;;;;4981054;28;20023;-69
2020/12/13 08:35:15;;;;;;;37.95;15.02;;;6.50;99.90;;;;;;4995640;28;20107;-68
2020/12/13 08:37:55;;;;;;;37.67;14.27;;;6.50;99.90;;;;;;4995535;28;20033;-69
2020/12/13 08:40:44;;;;;;;33.97;13.27;;;6.50;99.90;;;;;;4980574;28;20057;-69
2020/12/13 08:43:17;;;;;;;33.75;13.70;;;6.50;99.90;;;;;;4980932;28;20019;-69
2020/12/13 08:45:56;;;;;;;32.08;13.52;;;6.60;99.90;;;;;;4980374;28;20035;-69
2020/12/13 08:48:28;;;;;;;101.88;35.13;;;6.60;99.90;;;;;;4995362;28;20482;-69
2020/12/13 08:51:11;;;;;;;50.28;18.92;;;6.60;99.90;;;;;;4980224;28;20023;-69
2020/12/13 08:53:38;;;;;;;45.13;18.33;;;6.60;99.90;;;;;;4980078;28;20023;-69
2020/12/13 08:56:13;;;;;;;40.33;16.45;;;6.60;99.90;;;;;;4979010;28;20031;-71
2020/12/13 08:59:16;;;;;;;39.03;16.33;;;6.70;99.90;;;;;;4979895;28;20423;-73
2020/12/13 09:01:55;;;;;;;30.98;14.68;;;6.70;99.90;;;;;;4979641;28;20050;-68
2020/12/13 09:04:25;;;;;;;39.70;16.08;;;6.70;99.90;;;;;;4979817;28;20019;-69
2020/12/13 09:06:55;;;;;;;39.78;16.05;;;6.80;99.90;;;;;;4979819;28;20119;-69
2020/12/13 09:09:28;;;;;;;44.88;17.10;;;6.80;99.90;;;;;;4980604;28;20423;-69
2020/12/13 09:11:55;;;;;;;37.00;15.73;;;6.80;99.90;;;;;;4995142;28;20190;-69
2020/12/13 09:14:37;;;;;;;56.35;18.77;;;6.80;99.90;;;;;;4995320;28;20031;-68
2020/12/13 09:17:05;;;;;;;46.92;17.27;;;6.80;99.90;;;;;;4980347;28;20031;-68
2020/12/13 09:19:32;;;;;;;52.63;20.02;;;6.90;99.90;;;;;;4994811;28;20022;-68
2020/12/13 09:22:01;;;;;;;57.03;20.00;;;6.90;99.90;;;;;;4979537;28;20023;-69
2020/12/13 09:24:34;;;;;;;62.67;22.52;;;6.90;99.90;;;;;;4980088;28;20019;-68
2020/12/13 09:27:02;;;;;;;65.53;23.95;;;7.00;99.90;;;;;;4979498;28;20101;-68
2020/12/13 09:29:30;;;;;;;63.97;22.52;;;7.00;99.90;;;;;;4980541;28;20030;-68
2020/12/13 09:31:58;;;;;;;65.00;21.33;;;7.10;99.90;;;;;;4979417;28;20081;-68
2020/12/13 09:34:25;;;;;;;69.55;25.05;;;7.10;99.90;;;;;;4978457;28;20110;-68
2020/12/13 09:36:54;;;;;;;60.60;22.92;;;7.20;99.90;;;;;;4979283;28;20027;-68
2020/12/13 09:39:22;;;;;;;53.90;18.73;;;7.30;99.90;;;;;;4979296;28;20019;-68
2020/12/13 09:41:50;;;;;;;68.45;20.60;;;7.30;99.90;;;;;;4979228;28;20102;-68
2020/12/13 09:44:17;;;;;;;65.18;21.60;;;7.30;99.90;;;;;;4979336;28;20122;-68
2020/12/13 09:46:46;;;;;;;59.45;20.65;;;7.40;99.90;;;;;;4979169;28;20095;-68
2020/12/13 09:49:15;;;;;;;54.88;19.77;;;7.50;99.90;;;;;;4979043;28;20026;-69
2020/12/13 09:51:43;;;;;;;61.40;19.77;;;7.50;99.90;;;;;;4979220;28;20106;-68
2020/12/13 09:54:11;;;;;;;53.03;19.65;;;7.60;99.90;;;;;;4979562;28;20030;-68
2020/12/13 09:56:39;;;;;;;56.08;20.15;;;7.70;99.90;;;;;;4979554;28;20362;-67
2020/12/13 09:59:06;;;;;;;55.13;18.70;;;7.70;99.90;;;;;;4979397;28;20023;-69
2020/12/13 10:01:34;;;;;;;50.50;19.65;;;7.80;99.90;;;;;;4993869;28;20446;-69
2020/12/13 10:04:01;;;;;;;45.58;18.45;;;7.90;99.90;;;;;;4994431;28;20027;-69
2020/12/13 10:09:19;;;;;;;50.40;19.17;;;8.10;99.90;;;;;;4978656;28;20077;-68
2020/12/13 10:11:47;;;;;;;46.17;17.58;;;8.10;99.90;;;;;;4979530;28;20270;-69
2020/12/13 10:14:14;;;;;;;51.67;17.80;;;8.20;99.90;;;;;;4978715;28;20326;-69
2020/12/13 10:16:44;;;;;;;47.53;18.80;;;8.20;99.90;;;;;;4979519;28;20323;-69
2020/12/13 10:19:11;;;;;;;45.65;18.58;;;8.20;99.90;;;;;;4979026;28;20026;-67
2020/12/13 10:21:40;;;;;;;48.13;18.73;;;8.20;99.90;;;;;;4978361;28;20355;-68
2020/12/13 10:24:07;;;;;;;48.47;17.23;;;8.20;99.90;;;;;;4978755;28;20372;-69
2020/12/13 10:26:39;;;;;;;47.15;17.05;;;8.20;99.90;;;;;;4978819;28;20402;-68
2020/12/13 10:29:08;;;;;;;40.42;16.67;;;8.30;99.90;;;;;;4978184;28;20113;-68
2020/12/13 10:31:41;;;;;;;47.15;17.20;;;8.20;99.90;;;;;;4978627;28;20446;-69
2020/12/13 10:34:11;;;;;;;39.17;16.70;;;8.20;99.90;;;;;;4978240;28;20053;-69
2020/12/13 10:36:39;;;;;;;40.30;16.17;;;8.20;99.90;;;;;;4979277;28;20323;-68
2020/12/13 10:39:08;;;;;;;39.67;16.35;;;8.30;99.90;;;;;;4979943;28;20030;-69
2020/12/13 10:41:37;;;;;;;48.72;19.38;;;8.20;99.90;;;;;;4978452;28;20023;-68
2020/12/13 10:44:05;;;;;;;44.60;18.27;;;8.20;99.90;;;;;;4978574;28;20019;-69
2020/12/13 10:46:32;;;;;;;40.88;16.73;;;8.20;99.90;;;;;;4993167;28;20027;-69
2020/12/13 10:49:00;;;;;;;41.78;17.23;;;8.20;99.90;;;;;;4978542;28;20054;-69
2020/12/13 10:51:28;;;;;;;42.30;17.75;;;8.20;99.90;;;;;;4978321;28;20033;-68
2020/12/13 10:53:55;;;;;;;44.83;17.73;;;8.20;99.90;;;;;;4978599;28;20034;-69
2020/12/13 10:56:23;;;;;;;38.25;17.02;;;8.30;99.90;;;;;;4992860;28;20122;-67
2020/12/13 10:58:51;;;;;;;45.20;16.42;;;8.30;99.90;;;;;;4978448;28;20103;-66
2020/12/13 11:01:18;;;;;;;39.13;17.90;;;8.30;99.90;;;;;;4993536;28;20042;-66
2020/12/13 11:03:46;;;;;;;46.28;17.27;;;8.30;99.90;;;;;;4977835;28;20019;-66
2020/12/13 11:06:14;;;;;;;39.17;17.20;;;8.30;99.90;;;;;;4978217;28;20426;-68
2020/12/13 11:08:42;;;;;;;40.50;17.20;;;8.40;99.90;;;;;;4978302;28;20034;-66
2020/12/13 11:11:10;;;;;;;38.38;17.05;;;8.30;99.90;;;;;;4978075;28;20376;-66
2020/12/13 11:13:38;;;;;;;43.20;18.77;;;8.30;99.90;;;;;;4978059;28;20107;-66
2020/12/13 11:16:06;;;;;;;43.92;17.42;;;8.30;99.90;;;;;;4977640;28;20027;-66
2020/12/13 11:18:34;;;;;;;40.83;17.08;;;8.30;99.90;;;;;;4977825;28;20027;-66
2020/12/13 11:21:03;;;;;;;45.80;18.33;;;8.30;99.90;;;;;;4978065;28;20027;-68
2020/12/13 11:23:31;;;;;;;43.10;17.35;;;8.30;99.90;;;;;;4978582;28;20106;-69
2020/12/13 11:25:59;;;;;;;49.95;18.85;;;8.30;99.90;;;;;;4993285;28;20077;-69
2020/12/13 11:28:27;;;;;;;41.15;17.77;;;8.30;99.90;;;;;;4978311;28;20030;-69
2020/12/13 11:30:55;;;;;;;43.33;19.33;;;8.20;99.90;;;;;;4978248;28;20023;-69
2020/12/13 11:33:24;;;;;;;44.67;17.38;;;8.20;99.90;;;;;;4978082;28;20018;-69
2020/12/13 11:35:51;;;;;;;44.03;17.58;;;8.20;99.90;;;;;;4977573;28;20054;-69
2020/12/13 11:38:19;;;;;;;44.22;18.23;;;8.20;99.90;;;;;;4977057;28;20100;-69
2020/12/13 11:40:47;;;;;;;41.60;16.75;;;8.30;99.90;;;;;;4977903;28;20445;-69
2020/12/13 11:43:15;;;;;;;42.03;16.70;;;8.30;99.90;;;;;;4978558;28;20112;-69
2020/12/13 11:45:43;;;;;;;43.40;17.30;;;8.30;99.90;;;;;;4977425;28;20025;-69
2020/12/13 11:48:10;;;;;;;42.78;16.52;;;8.40;99.90;;;;;;4993355;28;20027;-69
2020/12/13 11:50:43;;;;;;;46.20;17.50;;;8.50;99.90;;;;;;4977693;28;20428;-69
2020/12/13 11:53:12;;;;;;;36.60;15.65;;;8.50;99.90;;;;;;4978056;28;20503;-69
2020/12/13 11:55:39;;;;;;;34.15;14.48;;;8.50;99.90;;;;;;4977945;28;20033;-69
2020/12/13 11:58:07;;;;;;;34.45;13.82;;;8.60;99.90;;;;;;4978063;28;20062;-69
2020/12/13 12:00:35;;;;;;;37.70;15.48;;;8.60;99.90;;;;;;4977877;28;20119;-69
2020/12/13 12:03:02;;;;;;;32.50;14.45;;;8.70;99.90;;;;;;4977966;28;20026;-69
2020/12/13 12:05:29;;;;;;;37.60;15.18;;;8.60;99.90;;;;;;4977911;28;20347;-69
2020/12/13 12:07:57;;;;;;;29.48;13.23;;;8.60;99.90;;;;;;4980710;28;20019;-69
2020/12/13 12:10:26;;;;;;;33.38;14.38;;;8.50;99.90;;;;;;4981210;28;20026;-69
2020/12/13 12:12:54;;;;;;;35.20;13.70;;;8.50;99.90;;;;;;4996591;28;20026;-69
2020/12/13 12:15:22;;;;;;;28.77;12.35;;;8.50;99.90;;;;;;4996820;28;20031;-68
2020/12/13 12:17:50;;;;;;;33.00;14.43;;;8.50;99.90;;;;;;4980784;28;20105;-68
2020/12/13 12:20:20;;;;;;;35.90;13.75;;;8.50;99.90;;;;;;4981117;28;20029;-71
2020/12/13 12:22:48;;;;;;;33.22;13.60;;;8.50;99.90;;;;;;4980990;28;20097;-68
2020/12/13 12:25:15;;;;;;;35.65;14.98;;;8.60;99.90;;;;;;4981103;28;20106;-67
2020/12/13 12:27:43;;;;;;;32.13;14.20;;;8.60;99.90;;;;;;4981609;28;20023;-68
2020/12/13 12:30:10;;;;;;;33.92;13.02;;;8.70;99.90;;;;;;4980604;28;20018;-68
2020/12/13 12:32:38;;;;;;;38.20;12.77;;;8.70;99.90;;;;;;4981171;28;20080;-68
2020/12/13 12:35:06;;;;;;;31.05;12.52;;;8.80;99.90;;;;;;4980552;28;20026;-68
2020/12/13 12:37:36;;;;;;;35.33;12.18;;;8.80;99.90;;;;;;4980497;28;20031;-68
2020/12/13 12:40:04;;;;;;;30.42;11.60;;;8.80;99.90;;;;;;4980452;28;20042;-68
2020/12/13 12:42:33;;;;;;;28.42;12.60;;;8.80;99.90;;;;;;4980819;28;20101;-68
2020/12/13 12:45:02;;;;;;;32.92;13.48;;;8.80;99.90;;;;;;4980753;28;20049;-68
2020/12/13 12:47:30;;;;;;;30.98;13.48;;;8.80;99.90;;;;;;4980284;28;20097;-68
2020/12/13 12:49:58;;;;;;;30.50;13.25;;;8.80;99.90;;;;;;4980256;28;20027;-68
2020/12/13 12:52:26;;;;;;;32.38;12.93;;;8.70;99.90;;;;;;4981715;28;20031;-68
2020/12/13 12:54:53;;;;;;;29.15;12.88;;;8.70;99.90;;;;;;4995475;28;20026;-68
2020/12/13 12:57:21;;;;;;;33.28;13.43;;;8.70;99.90;;;;;;4980632;28;20035;-68